sensor_id;sensor_type;location;lat;lon;timestamp;P1;durP1;ratioP1;P2;durP2;ratioP2
15970;SDS011;59785;52.582;13.892;2022-09-17T00:01:21;8.30;;;6.65;;
15970;SDS011;59785;52.582;13.892;2022-09-17T00:03:50;7.18;;;4.13;;
15970;SDS011;59785;52.582;13.892;2022-09-17T00:06:19;6.53;;;3.70;;
15970;SDS011;59785;52.582;13.892;2022-09-17T00:08:46;6.72;;;3.92;;
15970;SDS011;59785;52.582;13.892;2022-09-17T00:11:16;7.20;;;4.10;;
15970;SDS011;59785;52.582;13.892;2022-09-17T00:13:46;6.13;;;3.90;;
15970;SDS011;59785;52.582;13.892;2022-09-17T00:16:19;5.32;;;3.70;;
15970;SDS011;59785;52.582;13.892;2022-09-17T00:18:48;6.20;;;4.03;;
15970;SDS011;59785;52.582;13.892;2022-09-17T00:21:17;5.20;;;3.70;;
15970;SDS011;59785;52.582;13.892;2022-09-17T00:23:44;5.97;;;3.70;;
15970;SDS011;59785;52.582;13.892;2022-09-17T00:26:11;9.63;;;4.20;;
15970;SDS011;59785;52.582;13.892;2022-09-17T00:28:39;7.78;;;4.55;;
15970;SDS011;59785;52.582;13.892;2022-09-17T00:31:07;6.38;;;3.80;;
15970;SDS011;59785;52.582;13.892;2022-09-17T00:33:34;8.05;;;3.53;;
15970;SDS011;59785;52.582;13.892;2022-09-17T00:36:00;6.60;;;3.50;;
15970;SDS011;59785;52.582;13.892;2022-09-17T00:38:28;6.50;;;3.45;;
15970;SDS011;59785;52.582;13.892;2022-09-17T00:40:54;6.03;;;4.07;;
15970;SDS011;59785;52.582;13.892;2022-09-17T00:43:39;7.03;;;3.67;;
15970;SDS011;59785;52.582;13.892;2022-09-17T00:46:19;11.27;;;4.63;;
15970;SDS011;59785;52.582;13.892;2022-09-17T00:49:08;15.20;;;8.93;;
15970;SDS011;59785;52.582;13.892;2022-09-17T00:51:38;12.73;;;7.30;;
15970;SDS011;59785;52.582;13.892;2022-09-17T00:54:10;11.57;;;6.70;;
15970;SDS011;59785;52.582;13.892;2022-09-17T00:56:38;9.52;;;5.70;;
15970;SDS011;59785;52.582;13.892;2022-09-17T00:59:06;12.30;;;6.75;;
15970;SDS011;59785;52.582;13.892;2022-09-17T01:01:33;10.38;;;6.45;;
15970;SDS011;59785;52.582;13.892;2022-09-17T01:04:00;10.57;;;5.78;;
15970;SDS011;59785;52.582;13.892;2022-09-17T01:06:47;11.93;;;6.03;;
15970;SDS011;59785;52.582;13.892;2022-09-17T01:09:42;11.88;;;5.95;;
15970;SDS011;59785;52.582;13.892;2022-09-17T01:12:40;8.20;;;5.75;;
15970;SDS011;59785;52.582;13.892;2022-09-17T01:15:23;8.43;;;6.40;;
15970;SDS011;59785;52.582;13.892;2022-09-17T01:18:08;11.75;;;6.72;;
15970;SDS011;59785;52.582;13.892;2022-09-17T01:20:48;10.52;;;6.32;;
15970;SDS011;59785;52.582;13.892;2022-09-17T01:35:50;12.77;;;6.80;;
15970;SDS011;59785;52.582;13.892;2022-09-17T01:38:28;11.73;;;5.93;;
15970;SDS011;59785;52.582;13.892;2022-09-17T01:41:06;11.57;;;6.22;;
15970;SDS011;59785;52.582;13.892;2022-09-17T01:43:50;11.45;;;5.80;;
15970;SDS011;59785;52.582;13.892;2022-09-17T01:46:28;9.15;;;5.57;;
15970;SDS011;59785;52.582;13.892;2022-09-17T01:48:58;12.23;;;6.15;;
15970;SDS011;59785;52.582;13.892;2022-09-17T01:51:29;9.65;;;5.50;;
15970;SDS011;59785;52.582;13.892;2022-09-17T01:54:06;13.35;;;6.32;;
15970;SDS011;59785;52.582;13.892;2022-09-17T01:56:50;12.55;;;6.50;;
15970;SDS011;59785;52.582;13.892;2022-09-17T01:59:26;13.00;;;6.13;;
15970;SDS011;59785;52.582;13.892;2022-09-17T02:01:59;12.50;;;5.82;;
15970;SDS011;59785;52.582;13.892;2022-09-17T02:04:42;8.60;;;5.90;;
15970;SDS011;59785;52.582;13.892;2022-09-17T02:07:16;16.00;;;7.07;;
15970;SDS011;59785;52.582;13.892;2022-09-17T02:09:53;14.23;;;5.50;;
15970;SDS011;59785;52.582;13.892;2022-09-17T02:12:28;14.27;;;5.18;;
15970;SDS011;59785;52.582;13.892;2022-09-17T02:15:01;13.98;;;5.38;;
15970;SDS011;59785;52.582;13.892;2022-09-17T02:17:37;11.48;;;5.47;;
15970;SDS011;59785;52.582;13.892;2022-09-17T02:20:09;10.15;;;5.50;;
15970;SDS011;59785;52.582;13.892;2022-09-17T02:25:23;12.80;;;5.57;;
15970;SDS011;59785;52.582;13.892;2022-09-17T02:30:54;12.88;;;4.90;;
15970;SDS011;59785;52.582;13.892;2022-09-17T02:33:21;9.38;;;5.07;;
15970;SDS011;59785;52.582;13.892;2022-09-17T02:35:48;12.80;;;5.18;;
15970;SDS011;59785;52.582;13.892;2022-09-17T02:38:21;12.27;;;5.60;;
15970;SDS011;59785;52.582;13.892;2022-09-17T02:46:22;13.70;;;6.30;;
15970;SDS011;59785;52.582;13.892;2022-09-17T02:49:23;10.07;;;5.13;;
15970;SDS011;59785;52.582;13.892;2022-09-17T02:54:49;11.10;;;5.25;;
15970;SDS011;59785;52.582;13.892;2022-09-17T02:57:29;11.65;;;5.40;;
15970;SDS011;59785;52.582;13.892;2022-09-17T03:00:05;15.27;;;5.60;;
15970;SDS011;59785;52.582;13.892;2022-09-17T03:03:00;12.68;;;6.55;;
15970;SDS011;59785;52.582;13.892;2022-09-17T03:05:27;10.10;;;5.38;;
15970;SDS011;59785;52.582;13.892;2022-09-17T03:07:55;11.57;;;5.38;;
15970;SDS011;59785;52.582;13.892;2022-09-17T03:10:22;13.93;;;5.32;;
15970;SDS011;59785;52.582;13.892;2022-09-17T03:12:48;8.63;;;6.15;;
15970;SDS011;59785;52.582;13.892;2022-09-17T03:15:14;12.10;;;5.82;;
15970;SDS011;59785;52.582;13.892;2022-09-17T03:17:40;12.15;;;5.25;;
15970;SDS011;59785;52.582;13.892;2022-09-17T03:20:06;8.98;;;5.22;;
15970;SDS011;59785;52.582;13.892;2022-09-17T03:22:33;10.45;;;5.40;;
15970;SDS011;59785;52.582;13.892;2022-09-17T03:25:00;9.82;;;5.00;;
15970;SDS011;59785;52.582;13.892;2022-09-17T03:27:26;10.68;;;4.88;;
15970;SDS011;59785;52.582;13.892;2022-09-17T03:29:52;9.93;;;5.00;;
15970;SDS011;59785;52.582;13.892;2022-09-17T03:32:18;8.45;;;4.75;;
15970;SDS011;59785;52.582;13.892;2022-09-17T03:34:44;10.27;;;4.95;;
15970;SDS011;59785;52.582;13.892;2022-09-17T03:37:12;9.15;;;4.82;;
15970;SDS011;59785;52.582;13.892;2022-09-17T03:39:38;9.65;;;5.30;;
15970;SDS011;59785;52.582;13.892;2022-09-17T03:42:04;8.35;;;5.85;;
15970;SDS011;59785;52.582;13.892;2022-09-17T03:44:31;12.40;;;5.00;;
15970;SDS011;59785;52.582;13.892;2022-09-17T03:46:57;9.45;;;5.30;;
15970;SDS011;59785;52.582;13.892;2022-09-17T03:49:23;10.77;;;5.93;;
15970;SDS011;59785;52.582;13.892;2022-09-17T03:51:50;10.85;;;6.55;;
15970;SDS011;59785;52.582;13.892;2022-09-17T03:54:16;11.25;;;6.28;;
15970;SDS011;59785;52.582;13.892;2022-09-17T03:56:42;12.88;;;5.60;;
15970;SDS011;59785;52.582;13.892;2022-09-17T03:59:08;10.15;;;5.72;;
15970;SDS011;59785;52.582;13.892;2022-09-17T04:01:35;13.35;;;5.63;;
15970;SDS011;59785;52.582;13.892;2022-09-17T04:04:01;13.73;;;6.20;;
15970;SDS011;59785;52.582;13.892;2022-09-17T04:06:28;9.93;;;6.40;;
15970;SDS011;59785;52.582;13.892;2022-09-17T04:08:54;14.85;;;6.65;;
15970;SDS011;59785;52.582;13.892;2022-09-17T04:11:22;12.40;;;6.20;;
15970;SDS011;59785;52.582;13.892;2022-09-17T04:13:48;9.50;;;6.20;;
15970;SDS011;59785;52.582;13.892;2022-09-17T04:16:14;10.73;;;6.13;;
15970;SDS011;59785;52.582;13.892;2022-09-17T04:18:40;10.48;;;6.25;;
15970;SDS011;59785;52.582;13.892;2022-09-17T04:21:06;13.98;;;6.38;;
15970;SDS011;59785;52.582;13.892;2022-09-17T04:23:33;13.23;;;6.35;;
15970;SDS011;59785;52.582;13.892;2022-09-17T04:25:59;15.25;;;6.50;;
15970;SDS011;59785;52.582;13.892;2022-09-17T04:28:25;13.98;;;6.35;;
15970;SDS011;59785;52.582;13.892;2022-09-17T04:30:51;11.00;;;6.28;;
15970;SDS011;59785;52.582;13.892;2022-09-17T04:33:17;11.75;;;6.32;;
15970;SDS011;59785;52.582;13.892;2022-09-17T04:35:43;14.45;;;6.50;;
15970;SDS011;59785;52.582;13.892;2022-09-17T04:38:10;12.85;;;5.97;;
15970;SDS011;59785;52.582;13.892;2022-09-17T04:40:38;16.20;;;6.65;;
15970;SDS011;59785;52.582;13.892;2022-09-17T04:43:07;16.52;;;6.55;;
15970;SDS011;59785;52.582;13.892;2022-09-17T04:45:35;16.52;;;6.45;;
15970;SDS011;59785;52.582;13.892;2022-09-17T04:48:01;13.27;;;6.25;;
15970;SDS011;59785;52.582;13.892;2022-09-17T04:50:27;15.75;;;6.38;;
15970;SDS011;59785;52.582;13.892;2022-09-17T04:52:53;12.70;;;6.00;;
15970;SDS011;59785;52.582;13.892;2022-09-17T04:55:20;16.95;;;5.88;;
15970;SDS011;59785;52.582;13.892;2022-09-17T04:57:50;15.48;;;6.15;;
15970;SDS011;59785;52.582;13.892;2022-09-17T05:00:18;16.17;;;5.57;;
15970;SDS011;59785;52.582;13.892;2022-09-17T05:02:46;10.40;;;5.18;;
15970;SDS011;59785;52.582;13.892;2022-09-17T05:05:15;10.63;;;4.97;;
15970;SDS011;59785;52.582;13.892;2022-09-17T05:07:43;10.48;;;5.57;;
15970;SDS011;59785;52.582;13.892;2022-09-17T05:10:10;11.13;;;5.10;;
15970;SDS011;59785;52.582;13.892;2022-09-17T05:12:38;9.50;;;5.28;;
15970;SDS011;59785;52.582;13.892;2022-09-17T05:15:04;9.25;;;5.63;;
15970;SDS011;59785;52.582;13.892;2022-09-17T05:17:31;14.32;;;4.97;;
15970;SDS011;59785;52.582;13.892;2022-09-17T05:19:57;10.93;;;4.70;;
15970;SDS011;59785;52.582;13.892;2022-09-17T05:22:23;9.88;;;4.90;;
15970;SDS011;59785;52.582;13.892;2022-09-17T05:24:49;12.70;;;5.32;;
15970;SDS011;59785;52.582;13.892;2022-09-17T05:27:15;12.32;;;4.70;;
15970;SDS011;59785;52.582;13.892;2022-09-17T05:29:41;16.52;;;5.20;;
15970;SDS011;59785;52.582;13.892;2022-09-17T05:32:07;11.45;;;5.13;;
15970;SDS011;59785;52.582;13.892;2022-09-17T05:34:34;12.15;;;4.80;;
15970;SDS011;59785;52.582;13.892;2022-09-17T05:37:00;11.15;;;4.20;;
15970;SDS011;59785;52.582;13.892;2022-09-17T05:39:26;14.13;;;4.47;;
15970;SDS011;59785;52.582;13.892;2022-09-17T05:41:53;10.77;;;4.20;;
15970;SDS011;59785;52.582;13.892;2022-09-17T05:44:20;12.93;;;4.85;;
15970;SDS011;59785;52.582;13.892;2022-09-17T05:46:46;11.57;;;4.25;;
15970;SDS011;59785;52.582;13.892;2022-09-17T05:49:13;11.68;;;5.07;;
15970;SDS011;59785;52.582;13.892;2022-09-17T05:51:40;13.05;;;4.40;;
15970;SDS011;59785;52.582;13.892;2022-09-17T05:54:06;16.05;;;5.13;;
15970;SDS011;59785;52.582;13.892;2022-09-17T05:56:33;15.68;;;5.15;;
15970;SDS011;59785;52.582;13.892;2022-09-17T05:58:59;14.63;;;4.55;;
15970;SDS011;59785;52.582;13.892;2022-09-17T06:01:25;10.55;;;4.32;;
15970;SDS011;59785;52.582;13.892;2022-09-17T06:03:52;10.32;;;4.18;;
15970;SDS011;59785;52.582;13.892;2022-09-17T06:06:19;14.23;;;4.15;;
15970;SDS011;59785;52.582;13.892;2022-09-17T06:08:45;12.23;;;4.28;;
15970;SDS011;59785;52.582;13.892;2022-09-17T06:11:11;10.45;;;4.22;;
15970;SDS011;59785;52.582;13.892;2022-09-17T06:13:37;9.55;;;4.07;;
15970;SDS011;59785;52.582;13.892;2022-09-17T06:16:03;11.73;;;4.30;;
15970;SDS011;59785;52.582;13.892;2022-09-17T06:18:30;10.10;;;4.07;;
15970;SDS011;59785;52.582;13.892;2022-09-17T06:20:57;15.13;;;4.75;;
15970;SDS011;59785;52.582;13.892;2022-09-17T06:23:25;14.27;;;4.88;;
15970;SDS011;59785;52.582;13.892;2022-09-17T06:25:53;10.82;;;3.40;;
15970;SDS011;59785;52.582;13.892;2022-09-17T06:28:21;17.40;;;4.25;;
15970;SDS011;59785;52.582;13.892;2022-09-17T06:30:47;9.52;;;4.22;;
15970;SDS011;59785;52.582;13.892;2022-09-17T06:33:13;11.52;;;4.00;;
15970;SDS011;59785;52.582;13.892;2022-09-17T06:35:40;17.23;;;4.32;;
15970;SDS011;59785;52.582;13.892;2022-09-17T06:38:07;12.48;;;3.92;;
15970;SDS011;59785;52.582;13.892;2022-09-17T06:40:33;10.77;;;3.88;;
15970;SDS011;59785;52.582;13.892;2022-09-17T06:42:59;16.17;;;4.53;;
15970;SDS011;59785;52.582;13.892;2022-09-17T06:45:25;9.65;;;3.70;;
15970;SDS011;59785;52.582;13.892;2022-09-17T06:47:52;9.45;;;3.95;;
15970;SDS011;59785;52.582;13.892;2022-09-17T06:50:18;9.82;;;4.47;;
15970;SDS011;59785;52.582;13.892;2022-09-17T06:52:48;8.20;;;3.25;;
15970;SDS011;59785;52.582;13.892;2022-09-17T06:55:17;11.10;;;4.00;;
15970;SDS011;59785;52.582;13.892;2022-09-17T06:57:44;15.18;;;4.05;;
15970;SDS011;59785;52.582;13.892;2022-09-17T07:00:11;16.63;;;4.00;;
15970;SDS011;59785;52.582;13.892;2022-09-17T07:02:39;10.27;;;3.47;;
15970;SDS011;59785;52.582;13.892;2022-09-17T07:05:05;12.40;;;3.95;;
15970;SDS011;59785;52.582;13.892;2022-09-17T07:07:32;11.32;;;4.13;;
15970;SDS011;59785;52.582;13.892;2022-09-17T07:10:01;14.07;;;3.47;;
15970;SDS011;59785;52.582;13.892;2022-09-17T07:12:27;12.07;;;3.72;;
15970;SDS011;59785;52.582;13.892;2022-09-17T07:14:53;10.65;;;3.40;;
15970;SDS011;59785;52.582;13.892;2022-09-17T07:17:19;16.20;;;3.42;;
15970;SDS011;59785;52.582;13.892;2022-09-17T07:19:46;12.80;;;3.45;;
15970;SDS011;59785;52.582;13.892;2022-09-17T07:22:12;11.73;;;4.10;;
15970;SDS011;59785;52.582;13.892;2022-09-17T07:24:38;15.63;;;4.07;;
15970;SDS011;59785;52.582;13.892;2022-09-17T07:27:05;12.40;;;3.40;;
15970;SDS011;59785;52.582;13.892;2022-09-17T07:29:31;12.40;;;4.10;;
15970;SDS011;59785;52.582;13.892;2022-09-17T07:31:57;13.73;;;3.85;;
15970;SDS011;59785;52.582;13.892;2022-09-17T07:34:24;10.13;;;3.05;;
15970;SDS011;59785;52.582;13.892;2022-09-17T07:36:52;17.65;;;3.88;;
15970;SDS011;59785;52.582;13.892;2022-09-17T07:39:19;12.82;;;3.38;;
15970;SDS011;59785;52.582;13.892;2022-09-17T07:41:45;15.02;;;3.38;;
15970;SDS011;59785;52.582;13.892;2022-09-17T07:44:11;13.50;;;3.47;;
15970;SDS011;59785;52.582;13.892;2022-09-17T07:46:37;11.32;;;4.13;;
15970;SDS011;59785;52.582;13.892;2022-09-17T07:49:03;15.43;;;3.95;;
15970;SDS011;59785;52.582;13.892;2022-09-17T07:51:29;17.70;;;3.40;;
15970;SDS011;59785;52.582;13.892;2022-09-17T07:53:56;17.15;;;4.05;;
15970;SDS011;59785;52.582;13.892;2022-09-17T07:56:24;10.70;;;3.42;;
15970;SDS011;59785;52.582;13.892;2022-09-17T07:58:51;14.43;;;3.63;;
15970;SDS011;59785;52.582;13.892;2022-09-17T08:01:18;11.57;;;3.40;;
15970;SDS011;59785;52.582;13.892;2022-09-17T08:03:48;14.32;;;3.92;;
15970;SDS011;59785;52.582;13.892;2022-09-17T08:06:17;11.15;;;3.60;;
15970;SDS011;59785;52.582;13.892;2022-09-17T08:08:48;12.30;;;3.30;;
15970;SDS011;59785;52.582;13.892;2022-09-17T08:11:16;11.55;;;3.30;;
15970;SDS011;59785;52.582;13.892;2022-09-17T08:14:04;16.08;;;4.22;;
15970;SDS011;59785;52.582;13.892;2022-09-17T08:16:30;12.77;;;3.95;;
15970;SDS011;59785;52.582;13.892;2022-09-17T08:18:57;16.20;;;3.65;;
15970;SDS011;59785;52.582;13.892;2022-09-17T08:21:23;18.17;;;3.83;;
15970;SDS011;59785;52.582;13.892;2022-09-17T08:23:49;9.55;;;3.35;;
15970;SDS011;59785;52.582;13.892;2022-09-17T08:26:16;13.85;;;3.50;;
15970;SDS011;59785;52.582;13.892;2022-09-17T08:28:48;16.58;;;4.10;;
15970;SDS011;59785;52.582;13.892;2022-09-17T08:31:17;14.82;;;3.92;;
15970;SDS011;59785;52.582;13.892;2022-09-17T08:33:44;15.23;;;4.43;;
15970;SDS011;59785;52.582;13.892;2022-09-17T08:36:11;14.35;;;3.35;;
15970;SDS011;59785;52.582;13.892;2022-09-17T08:38:39;18.52;;;3.88;;
15970;SDS011;59785;52.582;13.892;2022-09-17T08:43:38;11.68;;;3.53;;
15970;SDS011;59785;52.582;13.892;2022-09-17T08:46:11;13.43;;;3.58;;
15970;SDS011;59785;52.582;13.892;2022-09-17T08:48:49;9.88;;;4.70;;
15970;SDS011;59785;52.582;13.892;2022-09-17T08:51:37;9.63;;;2.85;;
15970;SDS011;59785;52.582;13.892;2022-09-17T08:54:16;15.38;;;4.05;;
15970;SDS011;59785;52.582;13.892;2022-09-17T08:56:51;10.57;;;3.25;;
15970;SDS011;59785;52.582;13.892;2022-09-17T09:02:37;12.60;;;3.50;;
15970;SDS011;59785;52.582;13.892;2022-09-17T09:05:29;12.88;;;4.03;;
15970;SDS011;59785;52.582;13.892;2022-09-17T09:08:18;11.23;;;2.90;;
15970;SDS011;59785;52.582;13.892;2022-09-17T09:10:51;9.70;;;3.03;;
15970;SDS011;59785;52.582;13.892;2022-09-17T09:13:21;15.55;;;3.25;;
15970;SDS011;59785;52.582;13.892;2022-09-17T09:15:54;11.30;;;3.15;;
15970;SDS011;59785;52.582;13.892;2022-09-17T09:18:26;11.13;;;3.25;;
15970;SDS011;59785;52.582;13.892;2022-09-17T09:24:04;12.30;;;3.58;;
15970;SDS011;59785;52.582;13.892;2022-09-17T09:26:46;10.68;;;3.15;;
15970;SDS011;59785;52.582;13.892;2022-09-17T09:29:39;11.52;;;8.65;;
15970;SDS011;59785;52.582;13.892;2022-09-17T09:32:57;8.45;;;2.60;;
15970;SDS011;59785;52.582;13.892;2022-09-17T09:35:14;9.65;;;2.42;;
15970;SDS011;59785;52.582;13.892;2022-09-17T09:37:50;10.00;;;3.13;;
15970;SDS011;59785;52.582;13.892;2022-09-17T09:40:35;6.90;;;2.47;;
15970;SDS011;59785;52.582;13.892;2022-09-17T09:49:15;15.80;;;3.05;;
15970;SDS011;59785;52.582;13.892;2022-09-17T09:51:50;10.30;;;7.38;;
15970;SDS011;59785;52.582;13.892;2022-09-17T09:54:31;9.00;;;2.38;;
15970;SDS011;59785;52.582;13.892;2022-09-17T09:57:33;9.73;;;2.80;;
15970;SDS011;59785;52.582;13.892;2022-09-17T10:00:19;12.68;;;3.70;;
15970;SDS011;59785;52.582;13.892;2022-09-17T16:14:30;2.28;;;1.85;;
15970;SDS011;59785;52.582;13.892;2022-09-17T16:16:56;5.15;;;2.35;;
15970;SDS011;59785;52.582;13.892;2022-09-17T16:19:24;2.40;;;1.95;;
15970;SDS011;59785;52.582;13.892;2022-09-17T16:21:50;2.38;;;1.60;;
15970;SDS011;59785;52.582;13.892;2022-09-17T16:24:16;1.77;;;1.67;;
15970;SDS011;59785;52.582;13.892;2022-09-17T16:26:43;3.83;;;3.55;;
15970;SDS011;59785;52.582;13.892;2022-09-17T16:29:13;1.50;;;1.40;;
15970;SDS011;59785;52.582;13.892;2022-09-17T16:31:41;2.10;;;1.95;;
15970;SDS011;59785;52.582;13.892;2022-09-17T16:34:09;1.45;;;1.35;;
15970;SDS011;59785;52.582;13.892;2022-09-17T16:36:35;3.17;;;2.30;;
15970;SDS011;59785;52.582;13.892;2022-09-17T16:39:01;2.38;;;2.25;;
15970;SDS011;59785;52.582;13.892;2022-09-17T16:41:27;2.67;;;2.13;;
15970;SDS011;59785;52.582;13.892;2022-09-17T16:43:54;3.50;;;2.13;;
15970;SDS011;59785;52.582;13.892;2022-09-17T16:46:20;1.88;;;1.70;;
15970;SDS011;59785;52.582;13.892;2022-09-17T16:48:49;1.85;;;1.70;;
15970;SDS011;59785;52.582;13.892;2022-09-17T16:51:15;2.55;;;2.35;;
15970;SDS011;59785;52.582;13.892;2022-09-17T16:53:42;2.97;;;2.78;;
15970;SDS011;59785;52.582;13.892;2022-09-17T16:56:11;2.50;;;2.10;;
15970;SDS011;59785;52.582;13.892;2022-09-17T16:58:39;3.03;;;2.00;;
15970;SDS011;59785;52.582;13.892;2022-09-17T17:01:07;2.40;;;2.20;;
15970;SDS011;59785;52.582;13.892;2022-09-17T17:03:40;3.17;;;2.97;;
15970;SDS011;59785;52.582;13.892;2022-09-17T17:06:20;3.75;;;2.80;;
15970;SDS011;59785;52.582;13.892;2022-09-17T17:08:47;4.95;;;3.22;;
15970;SDS011;59785;52.582;13.892;2022-09-17T17:11:13;6.78;;;3.33;;
15970;SDS011;59785;52.582;13.892;2022-09-17T17:13:42;6.88;;;2.10;;
15970;SDS011;59785;52.582;13.892;2022-09-17T17:16:10;6.95;;;3.42;;
15970;SDS011;59785;52.582;13.892;2022-09-17T17:18:38;3.65;;;2.67;;
15970;SDS011;59785;52.582;13.892;2022-09-17T17:21:07;3.08;;;2.20;;
15970;SDS011;59785;52.582;13.892;2022-09-17T17:23:35;4.35;;;2.45;;
15970;SDS011;59785;52.582;13.892;2022-09-17T17:26:01;2.78;;;2.60;;
15970;SDS011;59785;52.582;13.892;2022-09-17T17:28:34;5.38;;;2.80;;
15970;SDS011;59785;52.582;13.892;2022-09-17T17:31:01;3.42;;;2.70;;
15970;SDS011;59785;52.582;13.892;2022-09-17T17:33:30;2.90;;;2.60;;
15970;SDS011;59785;52.582;13.892;2022-09-17T17:35:59;5.40;;;2.70;;
15970;SDS011;59785;52.582;13.892;2022-09-17T17:38:33;4.40;;;3.85;;
15970;SDS011;59785;52.582;13.892;2022-09-17T17:41:03;2.58;;;2.00;;
15970;SDS011;59785;52.582;13.892;2022-09-17T17:43:31;2.83;;;2.05;;
15970;SDS011;59785;52.582;13.892;2022-09-17T17:45:57;3.85;;;2.53;;
15970;SDS011;59785;52.582;13.892;2022-09-17T17:48:23;2.72;;;2.50;;
15970;SDS011;59785;52.582;13.892;2022-09-17T17:50:49;4.03;;;2.40;;
15970;SDS011;59785;52.582;13.892;2022-09-17T17:53:21;2.80;;;2.03;;
15970;SDS011;59785;52.582;13.892;2022-09-17T17:55:54;3.88;;;2.33;;
15970;SDS011;59785;52.582;13.892;2022-09-17T17:58:22;2.95;;;2.50;;
15970;SDS011;59785;52.582;13.892;2022-09-17T18:00:48;2.85;;;2.63;;
15970;SDS011;59785;52.582;13.892;2022-09-17T18:03:14;3.22;;;2.15;;
15970;SDS011;59785;52.582;13.892;2022-09-17T18:05:40;2.55;;;2.20;;
15970;SDS011;59785;52.582;13.892;2022-09-17T18:08:06;3.28;;;2.05;;
15970;SDS011;59785;52.582;13.892;2022-09-17T18:10:33;3.00;;;1.80;;
15970;SDS011;59785;52.582;13.892;2022-09-17T18:12:59;3.80;;;2.40;;
15970;SDS011;59785;52.582;13.892;2022-09-17T18:15:25;3.55;;;2.78;;
15970;SDS011;59785;52.582;13.892;2022-09-17T18:17:51;2.08;;;1.85;;
15970;SDS011;59785;52.582;13.892;2022-09-17T18:20:19;2.65;;;2.30;;
15970;SDS011;59785;52.582;13.892;2022-09-17T18:22:46;2.40;;;1.92;;
15970;SDS011;59785;52.582;13.892;2022-09-17T18:25:13;3.03;;;2.83;;
15970;SDS011;59785;52.582;13.892;2022-09-17T18:27:39;4.57;;;2.70;;
15970;SDS011;59785;52.582;13.892;2022-09-17T18:30:05;2.75;;;2.10;;
15970;SDS011;59785;52.582;13.892;2022-09-17T18:32:32;5.07;;;2.50;;
15970;SDS011;59785;52.582;13.892;2022-09-17T18:34:58;2.80;;;2.22;;
15970;SDS011;59785;52.582;13.892;2022-09-17T18:37:24;5.10;;;2.00;;
15970;SDS011;59785;52.582;13.892;2022-09-17T18:39:50;4.22;;;2.35;;
15970;SDS011;59785;52.582;13.892;2022-09-17T18:42:24;2.20;;;2.00;;
15970;SDS011;59785;52.582;13.892;2022-09-17T18:44:50;5.28;;;2.38;;
15970;SDS011;59785;52.582;13.892;2022-09-17T18:47:16;2.80;;;1.95;;
15970;SDS011;59785;52.582;13.892;2022-09-17T18:49:42;2.60;;;1.90;;
15970;SDS011;59785;52.582;13.892;2022-09-17T18:52:08;2.85;;;2.42;;
15970;SDS011;59785;52.582;13.892;2022-09-17T18:54:35;3.08;;;2.50;;
15970;SDS011;59785;52.582;13.892;2022-09-17T18:57:01;3.47;;;2.05;;
15970;SDS011;59785;52.582;13.892;2022-09-17T18:59:27;2.65;;;2.45;;
15970;SDS011;59785;52.582;13.892;2022-09-17T19:01:53;3.90;;;2.75;;
15970;SDS011;59785;52.582;13.892;2022-09-17T19:04:19;4.75;;;3.17;;
15970;SDS011;59785;52.582;13.892;2022-09-17T19:06:46;5.50;;;3.25;;
15970;SDS011;59785;52.582;13.892;2022-09-17T19:09:12;3.15;;;2.00;;
15970;SDS011;59785;52.582;13.892;2022-09-17T19:11:38;5.53;;;2.55;;
15970;SDS011;59785;52.582;13.892;2022-09-17T19:14:04;7.32;;;4.75;;
15970;SDS011;59785;52.582;13.892;2022-09-17T19:16:30;6.10;;;3.42;;
15970;SDS011;59785;52.582;13.892;2022-09-17T19:18:56;6.60;;;2.22;;
15970;SDS011;59785;52.582;13.892;2022-09-17T19:21:22;2.40;;;2.20;;
15970;SDS011;59785;52.582;13.892;2022-09-17T19:23:49;3.78;;;1.95;;
15970;SDS011;59785;52.582;13.892;2022-09-17T19:26:17;2.72;;;1.92;;
15970;SDS011;59785;52.582;13.892;2022-09-17T19:28:51;4.20;;;2.10;;
15970;SDS011;59785;52.582;13.892;2022-09-17T19:31:28;5.13;;;2.78;;
15970;SDS011;59785;52.582;13.892;2022-09-17T19:33:55;5.13;;;2.05;;
15970;SDS011;59785;52.582;13.892;2022-09-17T19:36:21;9.07;;;3.22;;
15970;SDS011;59785;52.582;13.892;2022-09-17T19:38:47;4.20;;;2.80;;
15970;SDS011;59785;52.582;13.892;2022-09-17T19:41:18;4.03;;;2.05;;
15970;SDS011;59785;52.582;13.892;2022-09-17T19:43:49;3.45;;;2.45;;
15970;SDS011;59785;52.582;13.892;2022-09-17T19:46:20;2.65;;;2.42;;
15970;SDS011;59785;52.582;13.892;2022-09-17T19:48:51;6.22;;;2.58;;
15970;SDS011;59785;52.582;13.892;2022-09-17T19:51:19;2.80;;;2.50;;
15970;SDS011;59785;52.582;13.892;2022-09-17T19:53:46;3.83;;;2.50;;
15970;SDS011;59785;52.582;13.892;2022-09-17T19:56:13;2.95;;;2.63;;
15970;SDS011;59785;52.582;13.892;2022-09-17T19:58:41;4.68;;;2.60;;
15970;SDS011;59785;52.582;13.892;2022-09-17T20:01:08;4.03;;;2.70;;
15970;SDS011;59785;52.582;13.892;2022-09-17T20:03:38;5.72;;;2.45;;
15970;SDS011;59785;52.582;13.892;2022-09-17T20:06:06;3.33;;;2.78;;
15970;SDS011;59785;52.582;13.892;2022-09-17T20:08:35;3.40;;;2.10;;
15970;SDS011;59785;52.582;13.892;2022-09-17T20:11:08;4.38;;;2.00;;
15970;SDS011;59785;52.582;13.892;2022-09-17T20:13:35;6.85;;;2.40;;
15970;SDS011;59785;52.582;13.892;2022-09-17T20:16:05;3.58;;;3.28;;
15970;SDS011;59785;52.582;13.892;2022-09-17T20:18:39;6.05;;;2.05;;
15970;SDS011;59785;52.582;13.892;2022-09-17T20:21:09;2.45;;;2.00;;
15970;SDS011;59785;52.582;13.892;2022-09-17T20:23:37;4.63;;;2.40;;
15970;SDS011;59785;52.582;13.892;2022-09-17T20:26:03;4.45;;;2.13;;
15970;SDS011;59785;52.582;13.892;2022-09-17T20:28:30;2.38;;;1.90;;
15970;SDS011;59785;52.582;13.892;2022-09-17T20:31:03;6.28;;;2.53;;
15970;SDS011;59785;52.582;13.892;2022-09-17T20:33:37;4.18;;;2.20;;
15970;SDS011;59785;52.582;13.892;2022-09-17T20:36:04;4.53;;;2.20;;
15970;SDS011;59785;52.582;13.892;2022-09-17T20:38:32;3.78;;;2.70;;
15970;SDS011;59785;52.582;13.892;2022-09-17T20:41:19;4.10;;;2.35;;
15970;SDS011;59785;52.582;13.892;2022-09-17T20:43:47;4.70;;;2.28;;
15970;SDS011;59785;52.582;13.892;2022-09-17T20:46:15;3.72;;;2.30;;
15970;SDS011;59785;52.582;13.892;2022-09-17T20:48:42;4.47;;;2.08;;
15970;SDS011;59785;52.582;13.892;2022-09-17T20:51:15;5.00;;;2.30;;
15970;SDS011;59785;52.582;13.892;2022-09-17T20:53:49;4.03;;;2.35;;
15970;SDS011;59785;52.582;13.892;2022-09-17T20:56:17;5.30;;;2.10;;
15970;SDS011;59785;52.582;13.892;2022-09-17T20:58:45;3.50;;;2.15;;
15970;SDS011;59785;52.582;13.892;2022-09-17T21:01:19;3.17;;;2.08;;
15970;SDS011;59785;52.582;13.892;2022-09-17T21:03:48;3.65;;;2.38;;
15970;SDS011;59785;52.582;13.892;2022-09-17T21:06:17;2.95;;;2.05;;
15970;SDS011;59785;52.582;13.892;2022-09-17T21:08:44;5.43;;;2.20;;
15970;SDS011;59785;52.582;13.892;2022-09-17T21:11:11;2.22;;;1.77;;
15970;SDS011;59785;52.582;13.892;2022-09-17T21:13:38;9.55;;;2.58;;
15970;SDS011;59785;52.582;13.892;2022-09-17T21:16:05;5.20;;;2.00;;
15970;SDS011;59785;52.582;13.892;2022-09-17T21:18:32;2.05;;;1.80;;
15970;SDS011;59785;52.582;13.892;2022-09-17T21:21:05;6.07;;;2.90;;
15970;SDS011;59785;52.582;13.892;2022-09-17T21:23:33;4.78;;;2.03;;
15970;SDS011;59785;52.582;13.892;2022-09-17T21:26:04;3.30;;;2.10;;
15970;SDS011;59785;52.582;13.892;2022-09-17T21:28:31;4.75;;;2.33;;
15970;SDS011;59785;52.582;13.892;2022-09-17T21:31:02;3.13;;;2.00;;
15970;SDS011;59785;52.582;13.892;2022-09-17T21:33:30;3.90;;;2.13;;
15970;SDS011;59785;52.582;13.892;2022-09-17T21:36:03;3.88;;;1.90;;